sensor_id;sensor_type;location;lat;lon;timestamp;pressure;altitude;pressure_sealevel;temperature
13497;BMP180;6820;49.374;8.452;2022-11-15T00:00:37;100293.91;;;16.61
13497;BMP180;6820;49.374;8.452;2022-11-15T00:04:57;100293.91;;;16.61
13497;BMP180;6820;49.374;8.452;2022-11-15T00:09:17;100295.66;;;16.62
13497;BMP180;6820;49.374;8.452;2022-11-15T00:13:37;100305.97;;;16.64
13497;BMP180;6820;49.374;8.452;2022-11-15T00:17:57;100303.50;;;16.67
13497;BMP180;6820;49.374;8.452;2022-11-15T00:22:18;100290.75;;;16.68
13497;BMP180;6820;49.374;8.452;2022-11-15T00:26:38;100283.97;;;16.69
13497;BMP180;6820;49.374;8.452;2022-11-15T00:31:07;100277.94;;;16.68
13497;BMP180;6820;49.374;8.452;2022-11-15T00:35:27;100289.22;;;16.73
13497;BMP180;6820;49.374;8.452;2022-11-15T00:39:48;100280.03;;;16.78
13497;BMP180;6820;49.374;8.452;2022-11-15T00:44:08;100280.88;;;16.78
13497;BMP180;6820;49.374;8.452;2022-11-15T00:48:28;100275.84;;;16.80
13497;BMP180;6820;49.374;8.452;2022-11-15T00:52:48;100270.81;;;16.83
13497;BMP180;6820;49.374;8.452;2022-11-15T00:57:09;100269.97;;;16.84
13497;BMP180;6820;49.374;8.452;2022-11-15T01:01:29;100263.13;;;16.83
13497;BMP180;6820;49.374;8.452;2022-11-15T01:05:49;100253.75;;;16.83
13497;BMP180;6820;49.374;8.452;2022-11-15T01:10:09;100258.94;;;16.85
13497;BMP180;6820;49.374;8.452;2022-11-15T01:14:29;100255.63;;;16.87
13497;BMP180;6820;49.374;8.452;2022-11-15T01:18:50;100254.81;;;16.90
13497;BMP180;6820;49.374;8.452;2022-11-15T01:23:10;100251.28;;;16.85
13497;BMP180;6820;49.374;8.452;2022-11-15T01:27:30;100253.66;;;16.80
13497;BMP180;6820;49.374;8.452;2022-11-15T01:31:53;100258.72;;;16.79
13497;BMP180;6820;49.374;8.452;2022-11-15T01:36:16;100261.16;;;16.76
13497;BMP180;6820;49.374;8.452;2022-11-15T01:40:36;100245.72;;;16.73
13497;BMP180;6820;49.374;8.452;2022-11-15T01:44:57;100247.22;;;16.67
13497;BMP180;6820;49.374;8.452;2022-11-15T01:49:19;100231.91;;;16.68
13497;BMP180;6820;49.374;8.452;2022-11-15T01:53:42;100235.13;;;16.63
13497;BMP180;6820;49.374;8.452;2022-11-15T01:58:06;100233.28;;;16.59
13497;BMP180;6820;49.374;8.452;2022-11-15T02:02:26;100235.66;;;16.54
13497;BMP180;6820;49.374;8.452;2022-11-15T02:06:48;100237.44;;;16.55
13497;BMP180;6820;49.374;8.452;2022-11-15T02:11:08;100215.47;;;16.62
13497;BMP180;6820;49.374;8.452;2022-11-15T02:15:35;100212.09;;;16.63
13497;BMP180;6820;49.374;8.452;2022-11-15T02:29:53;100190.44;;;16.78
13497;BMP180;6820;49.374;8.452;2022-11-15T02:43:26;100177.19;;;16.65
13497;BMP180;6820;49.374;8.452;2022-11-15T02:48:08;100170.16;;;16.58
13497;BMP180;6820;49.374;8.452;2022-11-15T02:52:29;100168.38;;;16.55
13497;BMP180;6820;49.374;8.452;2022-11-15T02:56:52;100170.91;;;16.55
13497;BMP180;6820;49.374;8.452;2022-11-15T03:01:50;100165.94;;;16.60
13497;BMP180;6820;49.374;8.452;2022-11-15T03:06:28;100155.81;;;16.63
13497;BMP180;6820;49.374;8.452;2022-11-15T03:11:11;100164.16;;;16.57
13497;BMP180;6820;49.374;8.452;2022-11-15T03:15:37;100142.72;;;16.54
13497;BMP180;6820;49.374;8.452;2022-11-15T03:20:01;100146.31;;;16.59
13497;BMP180;6820;49.374;8.452;2022-11-15T03:24:26;100145.66;;;16.66
13497;BMP180;6820;49.374;8.452;2022-11-15T03:29:00;100151.03;;;16.73
13497;BMP180;6820;49.374;8.452;2022-11-15T03:33:23;100143.56;;;16.79
13497;BMP180;6820;49.374;8.452;2022-11-15T03:42:46;100144.53;;;16.82
13497;BMP180;6820;49.374;8.452;2022-11-15T03:47:16;100139.53;;;16.85
13497;BMP180;6820;49.374;8.452;2022-11-15T03:51:37;100149.09;;;16.91
13497;BMP180;6820;49.374;8.452;2022-11-15T03:55:57;100149.03;;;16.89
13497;BMP180;6820;49.374;8.452;2022-11-15T04:00:18;100133.81;;;16.94
13497;BMP180;6820;49.374;8.452;2022-11-15T04:04:38;100138.00;;;16.92
13497;BMP180;6820;49.374;8.452;2022-11-15T04:08:59;100149.94;;;16.91
13497;BMP180;6820;49.374;8.452;2022-11-15T04:13:19;100145.03;;;16.97
13497;BMP180;6820;49.374;8.452;2022-11-15T04:17:42;100149.47;;;17.03
13497;BMP180;6820;49.374;8.452;2022-11-15T04:22:03;100147.16;;;17.10
13497;BMP180;6820;49.374;8.452;2022-11-15T04:26:42;100144.78;;;17.14
13497;BMP180;6820;49.374;8.452;2022-11-15T04:31:02;100144.91;;;17.19
13497;BMP180;6820;49.374;8.452;2022-11-15T04:35:22;100131.38;;;17.23
13497;BMP180;6820;49.374;8.452;2022-11-15T04:39:43;100152.66;;;17.22
13497;BMP180;6820;49.374;8.452;2022-11-15T04:44:03;100133.84;;;17.20
13497;BMP180;6820;49.374;8.452;2022-11-15T04:48:23;100119.34;;;17.20
13497;BMP180;6820;49.374;8.452;2022-11-15T04:52:50;100120.97;;;17.18
13497;BMP180;6820;49.374;8.452;2022-11-15T04:57:11;100115.00;;;17.18
13497;BMP180;6820;49.374;8.452;2022-11-15T05:01:31;100116.69;;;17.17
13497;BMP180;6820;49.374;8.452;2022-11-15T05:05:52;100116.59;;;17.14
13497;BMP180;6820;49.374;8.452;2022-11-15T05:10:12;100111.50;;;17.16
13497;BMP180;6820;49.374;8.452;2022-11-15T05:14:32;100103.06;;;17.18
13497;BMP180;6820;49.374;8.452;2022-11-15T05:18:53;100102.25;;;17.19
13497;BMP180;6820;49.374;8.452;2022-11-15T05:23:13;100095.47;;;17.21
13497;BMP180;6820;49.374;8.452;2022-11-15T05:27:34;100089.44;;;17.19
13497;BMP180;6820;49.374;8.452;2022-11-15T05:31:54;100093.69;;;17.19
13497;BMP180;6820;49.374;8.452;2022-11-15T05:40:41;100111.69;;;17.22
13497;BMP180;6820;49.374;8.452;2022-11-15T05:45:03;100110.06;;;17.24
13497;BMP180;6820;49.374;8.452;2022-11-15T05:49:34;100094.75;;;17.25
13497;BMP180;6820;49.374;8.452;2022-11-15T05:53:56;100102.44;;;17.25
13497;BMP180;6820;49.374;8.452;2022-11-15T05:58:18;100091.31;;;17.25
13497;BMP180;6820;49.374;8.452;2022-11-15T06:02:40;100093.81;;;17.23
13497;BMP180;6820;49.374;8.452;2022-11-15T06:07:00;100092.81;;;17.18
13497;BMP180;6820;49.374;8.452;2022-11-15T06:11:21;100110.56;;;17.12
13497;BMP180;6820;49.374;8.452;2022-11-15T06:15:41;100110.44;;;17.09
13497;BMP180;6820;49.374;8.452;2022-11-15T06:20:01;100101.81;;;17.06
13497;BMP180;6820;49.374;8.452;2022-11-15T06:24:22;100098.34;;;17.06
13497;BMP180;6820;49.374;8.452;2022-11-15T06:28:42;100105.91;;;17.01
13497;BMP180;6820;49.374;8.452;2022-11-15T06:33:04;100102.59;;;17.04
13497;BMP180;6820;49.374;8.452;2022-11-15T06:37:24;100102.50;;;17.02
13497;BMP180;6820;49.374;8.452;2022-11-15T06:41:44;100095.59;;;16.98
13497;BMP180;6820;49.374;8.452;2022-11-15T06:46:06;100087.84;;;16.97
13497;BMP180;6820;49.374;8.452;2022-11-15T06:50:27;100086.91;;;16.95
13497;BMP180;6820;49.374;8.452;2022-11-15T06:54:47;100086.81;;;16.92
13497;BMP180;6820;49.374;8.452;2022-11-15T06:59:08;100082.56;;;16.92
13497;BMP180;6820;49.374;8.452;2022-11-15T07:03:28;100077.50;;;16.94
13497;BMP180;6820;49.374;8.452;2022-11-15T07:07:53;100082.88;;;17.01
13497;BMP180;6820;49.374;8.452;2022-11-15T07:12:14;100084.91;;;17.11
13497;BMP180;6820;49.374;8.452;2022-11-15T07:16:36;100087.78;;;17.21
13497;BMP180;6820;49.374;8.452;2022-11-15T07:21:00;100098.19;;;17.26
13497;BMP180;6820;49.374;8.452;2022-11-15T07:25:21;100093.97;;;17.28
13497;BMP180;6820;49.374;8.452;2022-11-15T07:29:41;100093.97;;;17.28
13497;BMP180;6820;49.374;8.452;2022-11-15T07:34:01;100098.31;;;17.30
13497;BMP180;6820;49.374;8.452;2022-11-15T07:38:21;100101.91;;;17.37
13497;BMP180;6820;49.374;8.452;2022-11-15T07:42:41;100109.75;;;17.41
13497;BMP180;6820;49.374;8.452;2022-11-15T07:47:13;100110.69;;;17.44
13497;BMP180;6820;49.374;8.452;2022-11-15T07:51:34;100098.16;;;17.53
13497;BMP180;6820;49.374;8.452;2022-11-15T07:55:54;100105.91;;;17.56
13497;BMP180;6820;49.374;8.452;2022-11-15T08:00:15;100111.97;;;17.58
13497;BMP180;6820;49.374;8.452;2022-11-15T08:04:35;100102.63;;;17.60
13497;BMP180;6820;49.374;8.452;2022-11-15T08:08:55;100098.50;;;17.65
13497;BMP180;6820;49.374;8.452;2022-11-15T08:13:15;100092.59;;;17.68
13497;BMP180;6820;49.374;8.452;2022-11-15T08:17:36;100091.13;;;17.75
13497;BMP180;6820;49.374;8.452;2022-11-15T08:21:56;100087.19;;;17.88
13497;BMP180;6820;49.374;8.452;2022-11-15T08:26:17;100079.88;;;18.01
13497;BMP180;6820;49.374;8.452;2022-11-15T08:30:39;100077.47;;;18.07
13497;BMP180;6820;49.374;8.452;2022-11-15T08:35:01;100070.72;;;18.09
13497;BMP180;6820;49.374;8.452;2022-11-15T08:39:21;100074.28;;;18.14
13497;BMP180;6820;49.374;8.452;2022-11-15T08:43:42;100069.91;;;18.10
13497;BMP180;6820;49.374;8.452;2022-11-15T08:48:03;100068.81;;;18.02
13497;BMP180;6820;49.374;8.452;2022-11-15T08:52:23;100065.44;;;18.03
13497;BMP180;6820;49.374;8.452;2022-11-15T08:56:43;100063.16;;;18.15
13497;BMP180;6820;49.374;8.452;2022-11-15T09:01:03;100065.13;;;18.23
13497;BMP180;6820;49.374;8.452;2022-11-15T09:05:24;100085.03;;;18.33
13497;BMP180;6820;49.374;8.452;2022-11-15T09:09:44;100074.06;;;18.38
13497;BMP180;6820;49.374;8.452;2022-11-15T09:14:04;100071.63;;;18.43
13497;BMP180;6820;49.374;8.452;2022-11-15T09:18:25;100068.28;;;18.47
13497;BMP180;6820;49.374;8.452;2022-11-15T09:22:45;100060.81;;;18.56
13497;BMP180;6820;49.374;8.452;2022-11-15T09:27:06;100060.91;;;18.59
13497;BMP180;6820;49.374;8.452;2022-11-15T09:31:26;100060.38;;;18.73
13497;BMP180;6820;49.374;8.452;2022-11-15T09:35:47;100062.34;;;18.83
13497;BMP180;6820;49.374;8.452;2022-11-15T09:40:13;100057.34;;;18.89
13497;BMP180;6820;49.374;8.452;2022-11-15T09:44:52;100056.84;;;19.03
13497;BMP180;6820;49.374;8.452;2022-11-15T09:49:16;100053.81;;;19.20
13497;BMP180;6820;49.374;8.452;2022-11-15T09:53:52;100043.84;;;19.33
13497;BMP180;6820;49.374;8.452;2022-11-15T09:58:36;100045.84;;;19.48
13497;BMP180;6820;49.374;8.452;2022-11-15T10:06:55;100033.94;;;19.51
13497;BMP180;6820;49.374;8.452;2022-11-15T10:11:02;100027.03;;;19.50
13497;BMP180;6820;49.374;8.452;2022-11-15T10:15:24;100030.47;;;19.51
13497;BMP180;6820;49.374;8.452;2022-11-15T10:23:36;100023.56;;;19.48
13497;BMP180;6820;49.374;8.452;2022-11-15T10:27:39;100024.50;;;19.52
13497;BMP180;6820;49.374;8.452;2022-11-15T10:31:42;100023.66;;;19.51
13497;BMP180;6820;49.374;8.452;2022-11-15T10:35:44;100011.66;;;19.52
13497;BMP180;6820;49.374;8.452;2022-11-15T10:40:03;100012.63;;;19.56
13497;BMP180;6820;49.374;8.452;2022-11-15T10:44:12;100006.72;;;19.62
13497;BMP180;6820;49.374;8.452;2022-11-15T10:48:21;99996.50;;;19.66
13497;BMP180;6820;49.374;8.452;2022-11-15T10:52:24;99988.84;;;19.69
13497;BMP180;6820;49.374;8.452;2022-11-15T10:56:26;99987.22;;;19.73
13497;BMP180;6820;49.374;8.452;2022-11-15T11:00:36;99974.38;;;19.73
13497;BMP180;6820;49.374;8.452;2022-11-15T11:04:50;99961.66;;;19.80
13497;BMP180;6820;49.374;8.452;2022-11-15T11:09:04;99944.66;;;19.88
13497;BMP180;6820;49.374;8.452;2022-11-15T11:13:23;99941.41;;;19.98
13497;BMP180;6820;49.374;8.452;2022-11-15T11:26:46;99908.31;;;20.18
13497;BMP180;6820;49.374;8.452;2022-11-15T11:32:19;99910.78;;;20.11
13497;BMP180;6820;49.374;8.452;2022-11-15T11:48:44;99899.31;;;20.45
13497;BMP180;6820;49.374;8.452;2022-11-15T11:53:01;99894.25;;;20.53
13497;BMP180;6820;49.374;8.452;2022-11-15T11:57:11;99884.81;;;20.55
13497;BMP180;6820;49.374;8.452;2022-11-15T12:01:19;99872.81;;;20.52
13497;BMP180;6820;49.374;8.452;2022-11-15T12:05:44;99860.69;;;20.47
13497;BMP180;6820;49.374;8.452;2022-11-15T12:09:59;99846.06;;;20.43
13497;BMP180;6820;49.374;8.452;2022-11-15T12:14:08;99836.63;;;20.44
13497;BMP180;6820;49.374;8.452;2022-11-15T12:18:16;99834.91;;;20.43
13497;BMP180;6820;49.374;8.452;2022-11-15T12:22:22;99834.06;;;20.42
13497;BMP180;6820;49.374;8.452;2022-11-15T12:26:31;99834.06;;;20.44
13497;BMP180;6820;49.374;8.452;2022-11-15T12:30:44;99829.97;;;20.56
13497;BMP180;6820;49.374;8.452;2022-11-15T12:34:48;99819.72;;;20.59
13497;BMP180;6820;49.374;8.452;2022-11-15T12:43:02;99815.41;;;20.59
13497;BMP180;6820;49.374;8.452;2022-11-15T12:47:22;99812.84;;;20.59
13497;BMP180;6820;49.374;8.452;2022-11-15T13:08:45;99782.91;;;20.66
13497;BMP180;6820;49.374;8.452;2022-11-15T13:12:51;99781.19;;;20.66
13497;BMP180;6820;49.374;8.452;2022-11-15T13:16:59;99769.19;;;20.67
13497;BMP180;6820;49.374;8.452;2022-11-15T13:21:02;99781.22;;;20.69
13497;BMP180;6820;49.374;8.452;2022-11-15T13:29:43;99755.44;;;20.66
13497;BMP180;6820;49.374;8.452;2022-11-15T13:33:44;99757.13;;;20.64
13497;BMP180;6820;49.374;8.452;2022-11-15T13:37:46;99750.25;;;20.62
13497;BMP180;6820;49.374;8.452;2022-11-15T13:41:50;99738.19;;;20.58
13497;BMP180;6820;49.374;8.452;2022-11-15T13:50:26;99731.41;;;20.67
13497;BMP180;6820;49.374;8.452;2022-11-15T13:54:33;99716.03;;;20.72
13497;BMP180;6820;49.374;8.452;2022-11-15T13:58:38;99717.72;;;20.70
13497;BMP180;6820;49.374;8.452;2022-11-15T14:02:40;99701.28;;;20.60
13497;BMP180;6820;49.374;8.452;2022-11-15T14:06:48;99696.06;;;20.54
13497;BMP180;6820;49.374;8.452;2022-11-15T14:11:18;99691.72;;;20.50
13497;BMP180;6820;49.374;8.452;2022-11-15T14:15:38;99691.66;;;20.45
13497;BMP180;6820;49.374;8.452;2022-11-15T14:19:39;99675.28;;;20.38
13497;BMP180;6820;49.374;8.452;2022-11-15T14:23:41;99667.50;;;20.32
13497;BMP180;6820;49.374;8.452;2022-11-15T14:28:30;99662.28;;;20.26
13497;BMP180;6820;49.374;8.452;2022-11-15T14:32:15;99644.22;;;20.20
13497;BMP180;6820;49.374;8.452;2022-11-15T14:36:19;99631.28;;;20.17
13497;BMP180;6820;49.374;8.452;2022-11-15T14:40:21;99633.94;;;20.20
13497;BMP180;6820;49.374;8.452;2022-11-15T14:44:23;99633.88;;;20.17
13497;BMP180;6820;49.374;8.452;2022-11-15T14:48:24;99612.38;;;20.11
13497;BMP180;6820;49.374;8.452;2022-11-15T14:52:31;99609.75;;;20.05
13497;BMP180;6820;49.374;8.452;2022-11-15T14:56:36;99610.56;;;20.04
13497;BMP180;6820;49.374;8.452;2022-11-15T15:00:39;99608.84;;;20.02
13497;BMP180;6820;49.374;8.452;2022-11-15T15:04:41;99601.03;;;19.94
13497;BMP180;6820;49.374;8.452;2022-11-15T15:08:43;99601.88;;;19.92
13497;BMP180;6820;49.374;8.452;2022-11-15T15:12:45;99593.25;;;19.90
13497;BMP180;6820;49.374;8.452;2022-11-15T15:16:46;99590.69;;;19.88
13497;BMP180;6820;49.374;8.452;2022-11-15T15:20:54;99587.22;;;19.86
13497;BMP180;6820;49.374;8.452;2022-11-15T15:24:56;99581.19;;;19.83
13497;BMP180;6820;49.374;8.452;2022-11-15T15:28:58;99579.41;;;19.79
13497;BMP180;6820;49.374;8.452;2022-11-15T15:32:59;99572.53;;;19.75
13497;BMP180;6820;49.374;8.452;2022-11-15T15:41:25;99572.34;;;19.63
13497;BMP180;6820;49.374;8.452;2022-11-15T15:45:27;99558.59;;;19.61
13497;BMP180;6820;49.374;8.452;2022-11-15T15:49:29;99559.41;;;19.59
13497;BMP180;6820;49.374;8.452;2022-11-15T15:53:30;99547.38;;;19.55
13497;BMP180;6820;49.374;8.452;2022-11-15T15:57:32;99545.63;;;19.52
13497;BMP180;6820;49.374;8.452;2022-11-15T16:01:34;99539.59;;;19.51
13497;BMP180;6820;49.374;8.452;2022-11-15T16:05:35;99533.63;;;19.49
13497;BMP180;6820;49.374;8.452;2022-11-15T16:09:37;99533.56;;;19.47
13497;BMP180;6820;49.374;8.452;2022-11-15T16:13:57;99524.97;;;19.45
13497;BMP180;6820;49.374;8.452;2022-11-15T16:18:00;99525.88;;;19.47
13497;BMP180;6820;49.374;8.452;2022-11-15T16:22:02;99523.31;;;19.47
13497;BMP180;6820;49.374;8.452;2022-11-15T16:26:14;99514.72;;;19.48
13497;BMP180;6820;49.374;8.452;2022-11-15T16:30:21;99507.03;;;19.47
13497;BMP180;6820;49.374;8.452;2022-11-15T16:34:24;99503.56;;;19.45
13497;BMP180;6820;49.374;8.452;2022-11-15T16:38:31;99493.28;;;19.45
13497;BMP180;6820;49.374;8.452;2022-11-15T16:42:33;99482.13;;;19.43
13497;BMP180;6820;49.374;8.452;2022-11-15T16:46:35;99488.09;;;19.40
13497;BMP180;6820;49.374;8.452;2022-11-15T16:50:36;99491.53;;;19.41
13497;BMP180;6820;49.374;8.452;2022-11-15T16:54:41;99483.81;;;19.38
13497;BMP180;6820;49.374;8.452;2022-11-15T16:58:42;99461.44;;;19.32
13497;BMP180;6820;49.374;8.452;2022-11-15T17:02:46;99461.44;;;19.32
13497;BMP180;6820;49.374;8.452;2022-11-15T17:06:48;99456.34;;;19.34
13497;BMP180;6820;49.374;8.452;2022-11-15T17:10:49;99446.91;;;19.33
13497;BMP180;6820;49.374;8.452;2022-11-15T17:14:51;99439.19;;;19.31
13497;BMP180;6820;49.374;8.452;2022-11-15T17:18:53;99444.31;;;19.31
13497;BMP180;6820;49.374;8.452;2022-11-15T17:22:55;99440.88;;;19.31
13497;BMP180;6820;49.374;8.452;2022-11-15T17:26:56;99441.75;;;19.31
13497;BMP180;6820;49.374;8.452;2022-11-15T17:30:58;99441.75;;;19.31
13497;BMP180;6820;49.374;8.452;2022-11-15T17:35:00;99435.75;;;19.32
13497;BMP180;6820;49.374;8.452;2022-11-15T17:39:03;99436.66;;;19.36
13497;BMP180;6820;49.374;8.452;2022-11-15T17:43:05;99442.63;;;19.35
13497;BMP180;6820;49.374;8.452;2022-11-15T17:47:07;99441.84;;;19.39
13497;BMP180;6820;49.374;8.452;2022-11-15T17:51:13;99443.56;;;19.40
13497;BMP180;6820;49.374;8.452;2022-11-15T17:55:15;99437.59;;;19.41
13497;BMP180;6820;49.374;8.452;2022-11-15T17:59:16;99440.16;;;19.41
13497;BMP180;6820;49.374;8.452;2022-11-15T18:03:22;99429.88;;;19.42
13497;BMP180;6820;49.374;8.452;2022-11-15T18:07:23;99437.59;;;19.42
13497;BMP180;6820;49.374;8.452;2022-11-15T18:11:33;99433.31;;;19.43
13497;BMP180;6820;49.374;8.452;2022-11-15T18:15:35;99428.16;;;19.41
13497;BMP180;6820;49.374;8.452;2022-11-15T18:19:37;99423.88;;;19.42
13497;BMP180;6820;49.374;8.452;2022-11-15T18:23:40;99423.03;;;19.43
13497;BMP180;6820;49.374;8.452;2022-11-15T18:27:42;99426.44;;;19.42
13497;BMP180;6820;49.374;8.452;2022-11-15T18:31:44;99418.75;;;19.42
13497;BMP180;6820;49.374;8.452;2022-11-15T18:35:48;99412.75;;;19.41
13497;BMP180;6820;49.374;8.452;2022-11-15T18:39:49;99411.00;;;19.40
13497;BMP180;6820;49.374;8.452;2022-11-15T18:43:55;99407.59;;;19.38
13497;BMP180;6820;49.374;8.452;2022-11-15T18:47:58;99400.72;;;19.39
13497;BMP180;6820;49.374;8.452;2022-11-15T18:51:59;99384.47;;;19.38
13497;BMP180;6820;49.374;8.452;2022-11-15T18:56:06;99404.97;;;19.37
13497;BMP180;6820;49.374;8.452;2022-11-15T19:00:08;99407.56;;;19.37
13497;BMP180;6820;49.374;8.452;2022-11-15T19:04:16;99410.13;;;19.37
13497;BMP180;6820;49.374;8.452;2022-11-15T19:08:18;99399.84;;;19.37
13497;BMP180;6820;49.374;8.452;2022-11-15T19:12:20;99397.34;;;19.43
13497;BMP180;6820;49.374;8.452;2022-11-15T19:16:23;99380.19;;;19.39
13497;BMP180;6820;49.374;8.452;2022-11-15T19:20:24;99387.00;;;19.35
13497;BMP180;6820;49.374;8.452;2022-11-15T19:24:26;99381.81;;;19.31
13497;BMP180;6820;49.374;8.452;2022-11-15T19:28:28;99368.06;;;19.29
13497;BMP180;6820;49.374;8.452;2022-11-15T19:32:30;99362.03;;;19.24
13497;BMP180;6820;49.374;8.452;2022-11-15T19:36:37;99372.28;;;19.21
13497;BMP180;6820;49.374;8.452;2022-11-15T19:40:39;99375.66;;;19.19
13497;BMP180;6820;49.374;8.452;2022-11-15T19:44:41;99378.25;;;19.22
13497;BMP180;6820;49.374;8.452;2022-11-15T19:48:42;99377.44;;;19.24
13497;BMP180;6820;49.374;8.452;2022-11-15T19:52:44;99379.19;;;19.25
13497;BMP180;6820;49.374;8.452;2022-11-15T19:56:46;99374.00;;;19.23
13497;BMP180;6820;49.374;8.452;2022-11-15T20:00:48;99363.72;;;19.21
13497;BMP180;6820;49.374;8.452;2022-11-15T20:04:50;99359.41;;;19.18
13497;BMP180;6820;49.374;8.452;2022-11-15T20:08:52;99344.84;;;19.19
13497;BMP180;6820;49.374;8.452;2022-11-15T20:12:54;99344.81;;;19.16
13497;BMP180;6820;49.374;8.452;2022-11-15T20:16:56;99340.50;;;19.13
13497;BMP180;6820;49.374;8.452;2022-11-15T20:20:57;99337.03;;;19.08
13497;BMP180;6820;49.374;8.452;2022-11-15T20:24:59;99337.91;;;19.09
13497;BMP180;6820;49.374;8.452;2022-11-15T20:29:01;99334.44;;;19.07
13497;BMP180;6820;49.374;8.452;2022-11-15T20:33:03;99331.06;;;19.09
13497;BMP180;6820;49.374;8.452;2022-11-15T20:37:05;99327.66;;;19.12
13497;BMP180;6820;49.374;8.452;2022-11-15T20:41:07;99325.97;;;19.12
13497;BMP180;6820;49.374;8.452;2022-11-15T20:45:08;99318.22;;;19.11
13497;BMP180;6820;49.374;8.452;2022-11-15T20:49:10;99310.53;;;19.12
13497;BMP180;6820;49.374;8.452;2022-11-15T20:53:15;99308.84;;;19.11
13497;BMP180;6820;49.374;8.452;2022-11-15T20:57:17;99303.66;;;19.10
13497;BMP180;6820;49.374;8.452;2022-11-15T21:01:19;99302.00;;;19.12
13497;BMP180;6820;49.374;8.452;2022-11-15T21:05:25;99300.25;;;19.11
13497;BMP180;6820;49.374;8.452;2022-11-15T21:09:27;99302.84;;;19.12
13497;BMP180;6820;49.374;8.452;2022-11-15T21:13:47;99295.09;;;19.11
13497;BMP180;6820;49.374;8.452;2022-11-15T21:17:48;99296.84;;;19.13
13497;BMP180;6820;49.374;8.452;2022-11-15T21:21:50;99299.41;;;19.13
13497;BMP180;6820;49.374;8.452;2022-11-15T21:25:52;99296.84;;;19.12
13497;BMP180;6820;49.374;8.452;2022-11-15T21:29:53;99296.84;;;19.12
13497;BMP180;6820;49.374;8.452;2022-11-15T21:33:55;99290.88;;;19.11
13497;BMP180;6820;49.374;8.452;2022-11-15T21:37:56;99292.53;;;19.11
13497;BMP180;6820;49.374;8.452;2022-11-15T21:41:58;99298.56;;;19.13
13497;BMP180;6820;49.374;8.452;2022-11-15T21:46:02;99292.56;;;19.12
13497;BMP180;6820;49.374;8.452;2022-11-15T21:50:04;99295.13;;;19.09
13497;BMP180;6820;49.374;8.452;2022-11-15T21:54:07;99288.25;;;19.10
13497;BMP180;6820;49.374;8.452;2022-11-15T21:58:08;99289.16;;;19.13
13497;BMP180;6820;49.374;8.452;2022-11-15T22:02:10;99285.75;;;19.14
13497;BMP180;6820;49.374;8.452;2022-11-15T22:06:17;99276.31;;;19.13
13497;BMP180;6820;49.374;8.452;2022-11-15T22:10:19;99272.84;;;19.10
13497;BMP180;6820;49.374;8.452;2022-11-15T22:14:20;99267.72;;;19.10
13497;BMP180;6820;49.374;8.452;2022-11-15T22:18:22;99261.69;;;19.08
13497;BMP180;6820;49.374;8.452;2022-11-15T22:22:32;99252.25;;;19.04
13497;BMP180;6820;49.374;8.452;2022-11-15T22:26:34;99253.94;;;19.02
13497;BMP180;6820;49.374;8.452;2022-11-15T22:30:35;99242.78;;;18.98
13497;BMP180;6820;49.374;8.452;2022-11-15T22:34:37;99247.91;;;18.97
13497;BMP180;6820;49.374;8.452;2022-11-15T22:38:39;99238.44;;;18.92
13497;BMP180;6820;49.374;8.452;2022-11-15T22:42:40;99243.47;;;18.86
13497;BMP180;6820;49.374;8.452;2022-11-15T22:46:42;99247.69;;;18.81
13497;BMP180;6820;49.374;8.452;2022-11-15T22:50:44;99245.13;;;18.81
13497;BMP180;6820;49.374;8.452;2022-11-15T22:54:45;99239.16;;;18.80
13497;BMP180;6820;49.374;8.452;2022-11-15T22:58:47;99248.59;;;18.84
13497;BMP180;6820;49.374;8.452;2022-11-15T23:02:50;99245.19;;;18.87
13497;BMP180;6820;49.374;8.452;2022-11-15T23:06:55;99245.19;;;18.87
13497;BMP180;6820;49.374;8.452;2022-11-15T23:11:02;99247.75;;;18.87
13497;BMP180;6820;49.374;8.452;2022-11-15T23:15:22;99237.47;;;18.82
13497;BMP180;6820;49.374;8.452;2022-11-15T23:19:24;99235.69;;;18.77
13497;BMP180;6820;49.374;8.452;2022-11-15T23:23:25;99235.66;;;18.75
13497;BMP180;6820;49.374;8.452;2022-11-15T23:27:27;99231.34;;;18.73
13497;BMP180;6820;49.374;8.452;2022-11-15T23:31:29;99233.09;;;18.74
13497;BMP180;6820;49.374;8.452;2022-11-15T23:36:02;99226.16;;;18.68
13497;BMP180;6820;49.374;8.452;2022-11-15T23:40:04;99237.22;;;18.63
13497;BMP180;6820;49.374;8.452;2022-11-15T23:44:06;99231.25;;;18.61
13497;BMP180;6820;49.374;8.452;2022-11-15T23:48:08;99235.44;;;18.58
13497;BMP180;6820;49.374;8.452;2022-11-15T23:52:09;99238.03;;;18.56
13497;BMP180;6820;49.374;8.452;2022-11-15T23:56:13;99194.38;;;18.55
